createdAt,value
2022-11-01T00:00:51.398Z,13.10
2022-11-01T00:08:26.342Z,13.11
2022-11-01T00:15:59.812Z,13.11
2022-11-01T00:23:34.949Z,13.11
2022-11-01T00:31:11.764Z,13.07
2022-11-01T00:38:50.674Z,13.06
2022-11-01T00:46:24.415Z,13.03
2022-11-01T00:53:59.455Z,12.97
2022-11-01T01:01:33.289Z,12.89
2022-11-01T01:09:08.386Z,12.87
2022-11-01T01:16:43.068Z,12.94
2022-11-01T01:24:18.136Z,12.84
2022-11-01T01:31:51.595Z,12.79
2022-11-01T01:39:26.853Z,12.77
2022-11-01T01:47:00.713Z,12.62
2022-11-01T01:54:36.222Z,12.73
2022-11-01T02:02:10.259Z,12.74
2022-11-01T02:09:45.924Z,12.80
2022-11-01T02:17:28.250Z,12.87
2022-11-01T02:25:11.365Z,12.86
2022-11-01T02:33:16.002Z,12.83
2022-11-01T02:41:00.316Z,12.78
2022-11-01T02:48:35.313Z,12.71
2022-11-01T02:56:10.912Z,12.68
2022-11-01T03:03:48.628Z,12.60
2022-11-01T03:11:24.945Z,12.54
2022-11-01T03:19:27.626Z,12.51
2022-11-01T03:27:06.357Z,12.46
2022-11-01T03:34:42.564Z,12.44
2022-11-01T03:42:19.775Z,12.36
2022-11-01T03:50:13.476Z,12.27
2022-11-01T03:57:47.930Z,12.16
2022-11-01T04:05:25.029Z,12.12
2022-11-01T04:12:59.660Z,12.13
2022-11-01T04:20:35.645Z,12.09
2022-11-01T04:28:09.264Z,12.05
2022-11-01T04:35:44.467Z,12.12
2022-11-01T04:43:18.719Z,12.12
2022-11-01T04:50:53.892Z,12.16
2022-11-01T04:58:27.521Z,12.12
2022-11-01T05:06:02.984Z,12.08
2022-11-01T05:13:37.515Z,12.02
2022-11-01T05:21:12.538Z,12.01
2022-11-01T05:28:46.048Z,11.95
2022-11-01T05:36:21.352Z,11.92
2022-11-01T05:43:55.033Z,11.92
2022-11-01T05:51:30.002Z,11.88
2022-11-01T05:59:03.563Z,11.93
2022-11-01T06:06:38.575Z,11.91
2022-11-01T06:14:12.613Z,11.93
2022-11-01T06:21:47.833Z,11.89
2022-11-01T06:29:21.788Z,11.90
2022-11-01T06:36:56.737Z,11.96
2022-11-01T06:44:30.409Z,11.95
2022-11-01T06:52:05.888Z,11.94
2022-11-01T06:59:39.562Z,11.94
2022-11-01T07:07:14.565Z,12.00
2022-11-01T07:14:48.075Z,12.00
2022-11-01T07:22:23.074Z,12.02
2022-11-01T07:29:57.117Z,12.05
2022-11-01T07:37:32.547Z,12.08
2022-11-01T07:45:12.026Z,12.11
2022-11-01T07:52:47.978Z,12.16
2022-11-01T08:00:21.882Z,12.27
2022-11-01T08:07:57.283Z,12.27
2022-11-01T08:15:30.968Z,12.42
2022-11-01T08:23:06.646Z,12.50
2022-11-01T08:30:42.484Z,12.69
2022-11-01T08:38:17.449Z,12.90
2022-11-01T08:45:50.913Z,13.04
2022-11-01T08:53:25.909Z,13.10
2022-11-01T09:00:59.685Z,13.18
2022-11-01T09:08:34.820Z,13.27
2022-11-01T09:16:09.650Z,13.40
2022-11-01T09:23:46.069Z,13.56
2022-11-01T09:31:21.539Z,13.70
2022-11-01T09:38:57.597Z,13.84
2022-11-01T09:46:35.436Z,13.92
2022-11-01T09:54:12.037Z,13.97
2022-11-01T10:01:57.864Z,14.04
2022-11-01T10:09:43.289Z,14.08
2022-11-01T10:17:17.679Z,14.15
2022-11-01T10:24:56.831Z,14.30
2022-11-01T10:32:36.131Z,14.40
2022-11-01T10:40:17.186Z,14.51
2022-11-01T10:47:58.584Z,14.62
2022-11-01T10:55:40.105Z,14.73
2022-11-01T11:03:20.425Z,15.00
2022-11-01T11:10:57.222Z,15.31
2022-11-01T11:18:35.242Z,15.57
2022-11-01T11:26:16.295Z,15.76
2022-11-01T11:33:52.870Z,15.79
2022-11-01T11:41:32.613Z,15.84
2022-11-01T11:49:07.471Z,15.92
2022-11-01T11:56:42.441Z,15.96
2022-11-01T12:04:19.173Z,16.01
2022-11-01T12:11:54.193Z,16.03
2022-11-01T12:19:28.863Z,16.04
2022-11-01T12:27:10.798Z,16.07
2022-11-01T12:34:48.789Z,16.07
2022-11-01T12:42:30.261Z,16.08
2022-11-01T12:50:10.851Z,16.08
2022-11-01T12:57:45.933Z,16.11
2022-11-01T13:05:23.217Z,16.19
2022-11-01T13:13:11.660Z,16.31
2022-11-01T13:20:52.895Z,16.40
2022-11-01T13:28:44.694Z,16.44
2022-11-01T13:36:28.709Z,16.46
2022-11-01T13:44:11.124Z,16.48
2022-11-01T13:51:49.655Z,16.46
2022-11-01T13:59:45.043Z,16.47
2022-11-01T14:07:19.084Z,16.45
2022-11-01T14:14:54.262Z,16.45
2022-11-01T14:22:31.150Z,16.46
2022-11-01T14:30:15.463Z,16.45
2022-11-01T14:37:53.210Z,16.45
2022-11-01T14:45:35.135Z,16.45
2022-11-01T14:53:17.627Z,16.43
2022-11-01T15:00:55.445Z,16.39
2022-11-01T15:08:33.896Z,16.31
2022-11-01T15:16:15.903Z,16.23
2022-11-01T15:23:51.611Z,16.11
2022-11-01T15:31:27.144Z,16.00
2022-11-01T15:39:03.796Z,15.84
2022-11-01T15:46:41.782Z,15.73
2022-11-01T15:54:21.914Z,15.58
2022-11-01T16:02:01.239Z,15.46
2022-11-01T16:09:40.282Z,15.28
2022-11-01T16:17:27.098Z,15.12
2022-11-01T16:25:18.300Z,14.95
2022-11-01T16:32:53.370Z,14.81
2022-11-01T16:40:30.019Z,14.63
2022-11-01T16:48:05.615Z,14.46
2022-11-01T16:55:40.932Z,14.32
2022-11-01T17:03:16.182Z,14.21
2022-11-01T17:10:50.694Z,14.09
2022-11-01T17:18:29.446Z,13.95
2022-11-01T17:26:04.863Z,13.83
2022-11-01T17:33:40.488Z,13.66
2022-11-01T17:41:19.655Z,13.54
2022-11-01T17:48:54.708Z,13.47
2022-11-01T17:56:28.241Z,13.35
2022-11-01T18:04:03.309Z,13.25
2022-11-01T18:11:39.674Z,13.13
2022-11-01T18:19:37.841Z,13.03
2022-11-01T18:27:13.476Z,12.92
2022-11-01T18:34:53.441Z,12.81
2022-11-01T18:42:27.265Z,12.69
2022-11-01T18:50:10.626Z,12.55
2022-11-01T18:57:46.418Z,12.42
2022-11-01T19:05:21.466Z,12.29
2022-11-01T19:12:56.111Z,12.19
2022-11-01T19:20:33.621Z,12.08
2022-11-01T19:28:16.546Z,11.97
2022-11-01T19:35:57.327Z,11.82
2022-11-01T19:43:31.284Z,11.72
2022-11-01T19:51:15.973Z,11.61
2022-11-01T19:58:52.498Z,11.51
2022-11-01T20:06:35.306Z,11.42
2022-11-01T20:14:09.675Z,11.34
2022-11-01T20:21:44.712Z,11.27
2022-11-01T20:29:18.393Z,11.17
2022-11-01T20:37:14.910Z,11.06
2022-11-01T20:44:46.980Z,10.94
2022-11-01T21:00:18.385Z,10.77
2022-11-01T21:07:59.403Z,10.65
2022-11-01T21:15:36.015Z,10.55
2022-11-01T21:23:23.695Z,10.49
2022-11-01T21:31:03.034Z,10.42
2022-11-01T21:38:42.242Z,10.32
2022-11-01T21:46:18.325Z,10.25
2022-11-01T21:53:53.378Z,10.18
2022-11-01T22:01:27.156Z,10.10
2022-11-01T22:09:02.211Z,10.01
2022-11-01T22:16:36.052Z,9.92
2022-11-01T22:24:11.202Z,9.86
2022-11-01T22:31:44.875Z,9.80
2022-11-01T22:39:22.194Z,9.67
2022-11-01T22:46:59.016Z,9.56
2022-11-01T22:54:40.113Z,9.50
2022-11-01T23:02:27.705Z,9.47
2022-11-01T23:10:07.156Z,9.42
2022-11-01T23:17:40.867Z,9.35
2022-11-01T23:25:16.072Z,9.26
2022-11-01T23:32:49.746Z,9.11
2022-11-01T23:40:33.055Z,9.02
2022-11-01T23:48:09.742Z,8.97
2022-11-01T23:55:48.128Z,8.92
